Currently 44°F in Anza, California, USA
44°F
59°F / 43°F
calm
0.00"
Thursday, April 18, 2019 5:53 AM PDT

Anza, California Weather Summary
Last 36 Hours

Temperature Winds Hourly Humidity Dewpoint
Time Report Norm Report Norm Max Gusts Precip. Rpt. Norm Rpt. Norm Pressure
1Thu 05:53 AM  44.0°F  46°F  calm  4 mph  5 mph  0.00"  67%  66%  33°F  34°F  N/A
3Thu 05:39 AM  42.9°F  46°F  3 mph E  4 mph  5 mph  ----  69%  66%  33°F  35°F  N/A
Thu 05:00 AM  44.1°F  46°F  4 mph NE  4 mph  5 mph  0.00"  64%  66%  32°F  35°F  N/A
Thu 04:00 AM  48.2°F  47°F  calm  4 mph  5 mph  0.00"  55%  67%  32°F  36°F  N/A
Thu 03:00 AM  57.8°F  47°F  calm  4 mph  8 mph  0.00"  38%  67%  31°F  36°F  N/A
Thu 02:00 AM  55.9°F  47°F  calm  5 mph  9 mph  0.00"  42%  68%  32°F  37°F  N/A
2Thu 01:09 AM  58.6°F  48°F  4 mph SE  5 mph  8 mph  ----  39%  69%  32°F  38°F  N/A
Thu 01:00 AM  57.5°F  48°F  5 mph SW  5 mph  11 mph  0.00"  39%  68%  32°F  37°F  N/A
Thu 12:00 AM  46.2°F  48°F  calm  5 mph  5 mph  0.00"  84%  68%  41°F  38°F  N/A
Wed 11:00 PM  47.4°F  50°F  calm  5 mph  7 mph  0.00"  92%  66%  45°F  38°F  N/A
Wed 10:00 PM  51.5°F  51°F  calm  5 mph  8 mph  0.00"  87%  64%  48°F  39°F  N/A
Wed 09:00 PM  53.4°F  53°F  calm  6 mph  11 mph  0.00"  81%  61%  47°F  39°F  N/A
Wed 08:00 PM  56.7°F  56°F  calm  7 mph  10 mph  0.00"  71%  56%  47°F  40°F  N/A
Wed 07:00 PM  62.9°F  60°F  8 mph NW  9 mph  14 mph  0.00"  57%  49%  47°F  41°F  N/A
Wed 06:00 PM  68.7°F  65°F  6 mph W  11 mph  16 mph  0.00"  36%  42%  39°F  40°F  N/A
Wed 05:00 PM  70.1°F  68°F  calm  12 mph  17 mph  0.00"  35%  38%  40°F  40°F  N/A
Wed 04:00 PM  70.4°F  69°F  calm  11 mph  17 mph  0.00"  40%  35%  44°F  39°F  N/A
Wed 03:00 PM  70.1°F  70°F  5 mph NW  11 mph  19 mph  0.00"  43%  33%  46°F  38°F  N/A
Wed 02:00 PM  70.9°F  69°F  9 mph W  11 mph  16 mph  0.00"  41%  32%  45°F  37°F  N/A
Wed 01:00 PM  69.4°F  69°F  6 mph S  11 mph  25 mph  0.00"  31%  33%  36°F  37°F  N/A
Wed 12:00 PM  66.9°F  67°F  6 mph NW  10 mph  19 mph  0.00"  34%  34%  37°F  37°F  N/A
Wed 11:00 AM  65.2°F  66°F  9 mph SW  10 mph  55 mph  0.00"  34%  36%  35°F  37°F  N/A
Wed 10:00 AM  63.9°F  63°F  8 mph S  10 mph  21 mph  0.00"  35%  40%  35°F  37°F  N/A
Wed 09:00 AM  56.3°F  60°F  4 mph SW  8 mph  10 mph  0.00"  70%  45%  46°F  38°F  N/A
Wed 08:00 AM  48.4°F  55°F  4 mph W  7 mph  11 mph  0.00"  92%  54%  46°F  38°F  N/A
Wed 07:00 AM  42.9°F  47°F  calm  5 mph  11 mph  0.00"  99%  66%  43°F  36°F  N/A
Wed 06:00 AM  42.4°F  45°F  3 mph N  5 mph  13 mph  0.00"  98%  67%  42°F  34°F  N/A
Wed 05:00 AM  43.6°F  46°F  calm  4 mph  12 mph  0.00"  98%  67%  43°F  35°F  N/A
Wed 04:00 AM  45.2°F  46°F  calm  4 mph  14 mph  0.00"  98%  68%  45°F  36°F  N/A
Wed 03:00 AM  45.2°F  47°F  calm  4 mph  15 mph  0.00"  98%  67%  45°F  36°F  N/A
Wed 02:00 AM  45.4°F  47°F  calm  5 mph  10 mph  0.00"  98%  68%  45°F  37°F  N/A
Wed 01:00 AM  45.1°F  47°F  1 mph N  5 mph  13 mph  0.00"  99%  69%  45°F  37°F  N/A
Wed 12:00 AM  45.6°F  48°F  calm  5 mph  11 mph  0.00"  99%  68%  45°F  38°F  N/A
Tue 11:00 PM  45.8°F  49°F  calm  5 mph  5 mph  0.00"  99%  66%  45°F  38°F  N/A
Tue 10:00 PM  45.8°F  50°F  calm  5 mph  14 mph  0.00"  99%  64%  45°F  38°F  N/A
Tue 09:00 PM  45.5°F  52°F  calm  6 mph  17 mph  0.00"  99%  61%  45°F  39°F  N/A
Tue 08:00 PM  45.8°F  55°F  1 mph N  6 mph  23 mph  0.00"  99%  56%  45°F  39°F  N/A
Tue 07:00 PM  46.4°F  60°F  7 mph NW  9 mph  24 mph  0.00"  97%  49%  45°F  40°F  N/A
Tue 06:00 PM  48.8°F  65°F  16 mph W  10 mph  24 mph  0.00"  90%  42%  46°F  40°F  N/A

  1. Current weather data. No green row appears if the current weather data is also the high or low for the current day.
  2. High temperature for the current day.
  3. Low temperature for the current day.

The Anza, California weather pages are a service of WeatherCurrents. The Anza Valley is southwestern Riverside County, east of Temecula and Aguanga, south of Mount San Jacinto and west of Mount Santa Rosa.
Copyright ©2019  WeatherCurrents. All rights reserved. - Submit questions and comments - Privacy Policy

This page automatically refreshes every 10 minutes.